PST,Max TemperatureF,Mean TemperatureF,Min TemperatureF,Max Dew PointF,MeanDew PointF,Min DewpointF,Max Humidity, Mean Humidity, Min Humidity, Max Sea Level PressureIn, Mean Sea Level PressureIn, Min Sea Level PressureIn, Max VisibilityMiles, Mean VisibilityMiles, Min VisibilityMiles, Max Wind SpeedMPH, Mean Wind SpeedMPH, Max Gust SpeedMPH,PrecipitationIn, CloudCover, Events, WindDirDegrees
2013-1-1,52,42,32,33,31,29,92,68,44,30.31,30.27,30.22,10,7,1,13,3,16,0.00,1,,336
2013-1-2,54,40,26,35,29,26,92,66,39,30.28,30.22,30.17,10,8,4,7,1,23,0.00,0,,319
2013-1-3,53,40,27,37,32,26,92,73,54,30.29,30.25,30.19,10,7,2,7,0,12,0.00,1,,323
2013-1-4,57,44,30,37,32,27,92,70,47,30.33,30.27,30.21,10,5,0,5,0,15,0.00,0,Fog,70
2013-1-5,51,42,32,43,36,30,96,80,63,30.30,30.21,30.12,6,3,0,15,2,18,0.55,3,Fog-Rain,344
2013-1-6,52,44,36,44,40,35,100,84,68,30.20,30.15,30.10,10,4,0,13,5,15,0.23,4,Fog-Rain,360
2013-1-7,51,43,34,40,37,32,100,81,61,30.27,30.20,30.16,10,4,0,9,2,12,0.00,1,Fog,71
2013-1-8,56,45,33,43,37,32,100,81,61,30.27,30.21,30.16,10,4,0,6,0,17,0.00,0,Fog,155
2013-1-9,52,44,35,46,39,30,92,79,65,30.18,30.05,29.94,10,5,1,13,3,16,T,3,Rain,193
2013-1-10,50,39,28,33,29,27,92,66,39,30.17,30.10,30.05,10,10,6,15,3,23,0.00,0,,299
2013-1-11,50,38,26,31,28,22,92,69,46,30.25,30.19,30.14,10,9,5,10,1,13,0.00,1,,250
2013-1-12,48,39,30,31,25,18,82,58,33,30.26,30.21,30.17,10,10,8,12,6,15,0.00,0,,331
2013-1-13,45,35,24,28,24,20,92,65,37,30.28,30.23,30.19,10,10,9,16,3,21,0.00,0,,322
2013-1-14,50,40,29,25,20,17,63,45,27,30.42,30.37,30.25,10,10,10,18,9,26,0.00,0,,340
2013-1-15,50,39,28,30,27,22,85,66,46,30.52,30.46,30.42,10,9,6,6,1,12,0.00,0,,165
2013-1-16,57,42,27,35,29,24,92,65,38,30.47,30.40,30.30,10,5,1,6,0,10,0.00,0,,275
2013-1-17,59,43,27,37,30,25,92,66,40,30.31,30.26,30.19,9,5,1,6,0,10,0.00,0,Fog,71
2013-1-18,61,45,29,36,30,27,92,62,32,30.27,30.22,30.17,10,5,0,10,1,12,0.00,0,Fog,342
2013-1-19,62,46,29,37,32,26,92,62,32,30.30,30.23,30.19,10,8,3,12,1,15,0.00,0,,338
2013-1-20,62,46,29,36,30,26,92,61,29,30.27,30.22,30.15,10,6,0,8,1,10,0.00,0,Fog,321
2013-1-21,63,47,30,37,33,28,92,63,34,30.22,30.17,30.13,10,8,5,6,1,7,0.00,0,Fog,293
2013-1-22,60,46,32,40,36,29,92,70,47,30.17,30.10,30.05,10,9,4,35,2,81,0.00,0,,333
2013-1-23,57,50,42,48,43,39,83,69,55,30.11,30.07,30.00,10,5,2,7,3,18,0.10,5,Rain,329
2013-1-24,56,52,48,52,48,45,93,85,77,30.21,30.16,30.09,10,4,2,14,5,17,0.02,8,Rain,331
2013-1-25,66,58,49,54,51,48,96,80,63,30.21,30.16,30.04,10,3,0,9,1,13,T,6,Fog-Rain,288
2013-1-26,60,52,43,52,46,36,96,71,46,30.03,29.99,29.94,10,6,0,20,5,25,0.00,3,Fog,183
2013-1-27,55,44,33,39,34,31,96,70,43,30.17,30.11,30.03,10,10,10,15,4,18,0.00,1,,310
2013-1-28,57,45,32,36,33,30,89,65,40,30.27,30.20,30.15,10,10,10,17,3,21,0.00,0,,300
2013-1-29,60,47,34,39,36,33,92,64,36,30.35,30.29,30.24,10,10,10,20,3,23,0.00,0,,311
2013-1-30,61,48,34,41,38,33,92,71,49,30.37,30.31,30.28,10,10,4,9,1,12,0.00,0,,147
2013-1-31,64,50,36,45,39,33,92,72,51,30.33,30.27,30.20,10,6,1,7,0,10,0.00,0,,307